Time;durP1;ratioP1;P1;durP2;ratioP2;P2;SDS_P1;SDS_P2;PMS_P1;PMS_P2;Temp;Humidity;BMP_temperature;BMP_pressure;BME280_temperature;BME280_humidity;BME280_pressure;Samples;Min_cycle;Max_cycle;Signal;HPM_P1;HPM_P2
2021/04/30 00:02:15;;;;;;;25.55;22.27;;;;;;;-146.18;100.00;67994.34;9986326;29;20048;-67
2021/04/30 00:07:11;;;;;;;30.70;24.63;;;;;;;-146.18;100.00;67994.34;9996340;29;20154;-67
2021/04/30 00:12:07;;;;;;;27.60;22.63;;;;;;;-146.18;100.00;67994.34;9990003;29;20052;-69
2021/04/30 00:17:04;;;;;;;27.55;23.85;;;;;;;-146.18;100.00;67994.34;9980906;29;20059;-68
2021/04/30 00:22:01;;;;;;;27.70;24.50;;;;;;;-146.18;100.00;67994.34;9984027;29;20665;-68
2021/04/30 00:26:57;;;;;;;30.92;25.95;;;;;;;-146.18;100.00;67994.34;9984158;29;20048;-67
2021/04/30 00:31:53;;;;;;;35.40;26.08;;;;;;;-146.18;100.00;67994.34;9990800;29;20056;-67
2021/04/30 00:36:50;;;;;;;30.00;26.80;;;;;;;-146.18;100.00;67994.34;9985142;29;20075;-68
2021/04/30 00:41:46;;;;;;;33.03;27.85;;;;;;;-146.18;100.00;67994.34;9989984;29;20140;-68
2021/04/30 00:46:42;;;;;;;34.22;29.30;;;;;;;-146.18;100.00;67994.34;9988204;29;20044;-67
2021/04/30 00:51:38;;;;;;;36.25;28.33;;;;;;;-146.18;100.00;67994.34;9991227;29;20064;-68
2021/04/30 00:56:35;;;;;;;34.70;29.05;;;;;;;-146.18;100.00;67994.34;9987552;29;20083;-68
2021/04/30 01:01:31;;;;;;;33.97;28.83;;;;;;;-146.18;100.00;67994.34;9985381;29;20044;-68
2021/04/30 01:06:27;;;;;;;34.30;28.67;;;;;;;-146.18;100.00;67994.34;9981787;29;20559;-68
2021/04/30 01:11:23;;;;;;;34.15;27.30;;;;;;;-146.18;100.00;67994.34;9990702;29;20044;-68
2021/04/30 01:16:19;;;;;;;35.05;29.50;;;;;;;-146.18;100.00;67994.34;9980211;29;20443;-67
2021/04/30 01:21:15;;;;;;;35.67;29.33;;;;;;;-146.18;100.00;67994.34;9990441;29;20070;-69
2021/04/30 01:26:11;;;;;;;32.63;28.02;;;;;;;-146.18;100.00;67994.34;9984863;29;20076;-67
2021/04/30 01:31:08;;;;;;;35.10;29.13;;;;;;;-146.18;100.00;67994.34;9983987;29;20056;-68
2021/04/30 01:36:04;;;;;;;34.00;28.67;;;;;;;-146.18;100.00;67994.34;9981226;29;20056;-67
2021/04/30 01:41:01;;;;;;;34.50;30.75;;;;;;;-146.18;100.00;67994.34;9987124;29;20076;-67
2021/04/30 01:46:04;;;;;;;34.38;28.98;;;;;;;-146.18;100.00;67994.34;9987395;29;20107;-69
2021/04/30 01:51:03;;;;;;;37.05;31.27;;;;;;;-146.18;100.00;67994.34;9969222;29;20048;-68
2021/04/30 01:56:00;;;;;;;39.92;31.13;;;;;;;-146.18;100.00;67994.34;9983867;29;20075;-68
2021/04/30 02:00:57;;;;;;;37.08;30.80;;;;;;;-146.18;100.00;67994.34;9984670;29;20573;-67
2021/04/30 02:05:53;;;;;;;39.92;31.63;;;;;;;-146.18;100.00;67994.34;9978943;29;20554;-67
2021/04/30 02:10:49;;;;;;;34.58;29.65;;;;;;;-146.18;100.00;67994.34;9982189;29;20510;-67
2021/04/30 02:15:51;;;;;;;36.95;29.88;;;;;;;-146.18;100.00;67994.34;9980262;29;20139;-70
2021/04/30 02:20:47;;;;;;;36.67;31.30;;;;;;;-146.18;100.00;67994.34;9982370;29;20104;-68
2021/04/30 02:25:43;;;;;;;42.35;31.50;;;;;;;-146.18;100.00;67994.34;9978835;29;20055;-67
2021/04/30 02:30:40;;;;;;;38.78;30.70;;;;;;;-146.18;100.00;67994.34;9983780;29;20123;-67
2021/04/30 02:35:42;;;;;;;35.40;29.65;;;;;;;-146.18;100.00;67994.34;9975701;29;20502;-67
2021/04/30 02:40:40;;;;;;;32.80;25.95;;;;;;;-146.18;100.00;67994.34;9978607;29;20056;-68
2021/04/30 02:45:36;;;;;;;36.08;28.35;;;;;;;-146.18;100.00;67994.34;9974921;29;20135;-68
2021/04/30 02:50:32;;;;;;;37.00;30.23;;;;;;;-146.18;100.00;67994.34;9980990;29;20080;-67
2021/04/30 02:55:28;;;;;;;39.67;31.83;;;;;;;-146.18;100.00;67994.34;9978041;29;20899;-65
2021/04/30 03:00:26;;;;;;;34.65;26.58;;;;;;;-146.18;100.00;67994.34;9976308;29;20052;-67
2021/04/30 03:05:22;;;;;;;35.47;28.05;;;;;;;-146.18;100.00;67994.34;9967892;29;20111;-66
2021/04/30 03:10:18;;;;;;;35.58;31.08;;;;;;;-146.18;100.00;67994.34;9987631;29;20056;-66
2021/04/30 03:15:15;;;;;;;34.13;26.90;;;;;;;-146.18;100.00;67994.34;9974892;29;20052;-68
2021/04/30 03:20:13;;;;;;;32.22;27.90;;;;;;;-146.18;100.00;67994.34;9957614;29;20048;-67
2021/04/30 03:25:10;;;;;;;32.03;26.00;;;;;;;-146.18;100.00;67994.34;9987516;29;20060;-65
2021/04/30 03:30:07;;;;;;;28.40;22.70;;;;;;;-146.18;100.00;67994.34;9974235;29;20056;-66
2021/04/30 03:35:05;;;;;;;28.15;23.17;;;;;;;-146.18;100.00;67994.34;9970416;29;20080;-66
2021/04/30 03:40:03;;;;;;;30.42;22.75;;;;;;;-146.18;100.00;67994.34;9986312;29;20562;-65
2021/04/30 03:44:59;;;;;;;26.42;23.08;;;;;;;-146.18;100.00;67994.34;9983314;29;20044;-65
2021/04/30 03:49:55;;;;;;;26.85;21.60;;;;;;;-146.18;100.00;67994.34;9973254;29;20052;-66
2021/04/30 03:54:51;;;;;;;27.48;22.67;;;;;;;-146.18;100.00;67994.34;9973402;29;21141;-65
2021/04/30 03:59:47;;;;;;;28.13;20.55;;;;;;;-146.18;100.00;67994.34;9969353;29;20061;-65
2021/04/30 04:04:43;;;;;;;26.67;20.95;;;;;;;-146.18;100.00;67994.34;9973457;29;20048;-65
2021/04/30 04:09:39;;;;;;;24.15;19.85;;;;;;;-146.18;100.00;67994.34;9976412;29;20525;-65
2021/04/30 04:14:35;;;;;;;24.42;21.40;;;;;;;-146.18;100.00;67994.34;9973808;29;20039;-65
2021/04/30 04:19:31;;;;;;;22.77;18.95;;;;;;;-146.18;100.00;67994.34;9983351;29;20051;-65
2021/04/30 04:24:27;;;;;;;26.17;20.90;;;;;;;-146.18;100.00;67994.34;9977398;29;20063;-66
2021/04/30 04:29:24;;;;;;;25.05;20.73;;;;;;;-146.18;100.00;67994.34;9975926;29;20685;-66
2021/04/30 04:34:20;;;;;;;24.80;20.38;;;;;;;-146.18;100.00;67994.34;9979810;29;20048;-65
2021/04/30 04:39:16;;;;;;;22.40;19.23;;;;;;;-146.18;100.00;67994.34;9985340;29;20067;-65
2021/04/30 04:44:13;;;;;;;28.05;23.60;;;;;;;-146.18;100.00;67994.34;9979643;29;20082;-68
2021/04/30 04:49:10;;;;;;;29.60;25.52;;;;;;;-146.18;100.00;67994.34;9987680;29;20139;-65
2021/04/30 04:54:06;;;;;;;32.05;25.75;;;;;;;-146.18;100.00;67994.34;9984409;29;20044;-65
2021/04/30 04:59:03;;;;;;;28.48;24.10;;;;;;;-146.18;100.00;67994.34;9972444;29;20052;-65
2021/04/30 05:04:01;;;;;;;29.80;24.92;;;;;;;-146.18;100.00;67994.34;9980835;29;20044;-65
2021/04/30 05:08:57;;;;;;;29.52;23.98;;;;;;;-146.18;100.00;67994.34;9983775;29;20052;-66
2021/04/30 05:13:53;;;;;;;35.53;28.77;;;;;;;-146.18;100.00;67994.34;9987434;29;20056;-66
2021/04/30 05:18:49;;;;;;;33.88;28.08;;;;;;;-146.18;100.00;67994.34;9981411;29;20104;-65
2021/04/30 05:23:46;;;;;;;34.53;27.30;;;;;;;-146.18;100.00;67994.34;9979764;29;20151;-66
2021/04/30 05:28:42;;;;;;;36.08;28.10;;;;;;;-146.18;100.00;67994.34;9974312;29;20123;-66
2021/04/30 05:33:38;;;;;;;32.40;26.67;;;;;;;-146.18;100.00;67994.34;9978522;29;20055;-66
2021/04/30 05:38:34;;;;;;;34.13;27.27;;;;;;;-146.18;100.00;67994.34;9980396;29;20049;-66
2021/04/30 05:43:30;;;;;;;36.17;31.77;;;;;;;-146.18;100.00;67994.34;9974836;29;20050;-65
2021/04/30 05:48:26;;;;;;;39.28;30.58;;;;;;;-146.18;100.00;67994.34;9979246;29;20058;-67
2021/04/30 05:53:22;;;;;;;37.38;29.60;;;;;;;-146.18;100.00;67994.34;9980208;29;20511;-66
2021/04/30 05:58:19;;;;;;;35.47;31.10;;;;;;;-146.18;100.00;67994.34;9975620;29;20044;-68
2021/04/30 06:03:15;;;;;;;35.92;28.23;;;;;;;-146.18;100.00;67994.34;9978096;29;20044;-68
2021/04/30 06:08:11;;;;;;;30.90;26.38;;;;;;;-146.18;100.00;67994.34;9976237;29;20051;-67
2021/04/30 06:13:07;;;;;;;30.88;27.00;;;;;;;-146.18;100.00;67994.34;9980294;29;20067;-67
2021/04/30 06:18:03;;;;;;;30.50;25.80;;;;;;;-146.18;100.00;67994.34;9972854;29;20115;-65
2021/04/30 06:22:59;;;;;;;31.08;26.55;;;;;;;-146.18;100.00;67994.34;9978796;29;20112;-64
2021/04/30 06:27:56;;;;;;;30.88;25.70;;;;;;;-146.18;100.00;67994.34;9981844;29;20080;-70
2021/04/30 06:32:52;;;;;;;33.80;25.98;;;;;;;-146.18;100.00;67994.34;9984862;29;20063;-65
2021/04/30 06:37:48;;;;;;;27.30;22.60;;;;;;;-146.18;100.00;67994.34;9979055;29;20414;-66
2021/04/30 06:42:44;;;;;;;28.55;24.27;;;;;;;-146.18;100.00;67994.34;9987122;29;20093;-66
2021/04/30 06:47:41;;;;;;;24.15;20.67;;;;;;;-146.18;100.00;67994.34;9987178;29;20515;-65
2021/04/30 06:52:39;;;;;;;25.48;21.10;;;;;;;-146.18;100.00;67994.34;9985305;29;20079;-65
2021/04/30 06:57:35;;;;;;;25.52;22.85;;;;;;;-146.18;100.00;67994.34;9989788;29;20047;-65
2021/04/30 07:02:33;;;;;;;27.00;22.15;;;;;;;-146.18;100.00;67994.34;9985074;29;20054;-65
2021/04/30 07:07:30;;;;;;;24.00;20.73;;;;;;;-146.18;100.00;67994.34;9979596;29;20052;-66
2021/04/30 07:12:27;;;;;;;25.67;19.85;;;;;;;-146.18;100.00;67994.34;9971724;29;20051;-66
2021/04/30 07:17:23;;;;;;;22.70;17.88;;;;;;;-146.18;100.00;67994.34;9973044;29;20068;-64
2021/04/30 07:22:19;;;;;;;28.55;20.55;;;;;;;-146.18;100.00;67994.34;9976000;29;20442;-66
2021/04/30 07:27:17;;;;;;;22.92;19.40;;;;;;;-146.18;100.00;67994.34;9977509;29;20052;-64
2021/04/30 07:32:14;;;;;;;28.45;22.33;;;;;;;-146.18;100.00;67994.34;9973444;29;20139;-65
2021/04/30 07:37:10;;;;;;;21.42;18.00;;;;;;;-146.18;100.00;67994.34;9975849;29;20418;-64
2021/04/30 07:42:07;;;;;;;21.30;18.67;;;;;;;-146.18;100.00;67994.34;9983717;29;20155;-64
2021/04/30 07:47:05;;;;;;;23.40;17.30;;;;;;;-146.18;100.00;67994.34;9981038;29;20048;-63
2021/04/30 07:52:02;;;;;;;19.23;15.38;;;;;;;-146.18;100.00;67994.34;9985852;29;20052;-61
2021/04/30 07:56:59;;;;;;;18.35;14.20;;;;;;;-146.18;100.00;67994.34;9992655;29;20115;-63
2021/04/30 08:01:56;;;;;;;17.10;14.13;;;;;;;-146.18;100.00;67994.34;9989198;29;20059;-63
2021/04/30 08:06:52;;;;;;;17.73;13.68;;;;;;;-146.18;100.00;67994.34;9981588;29;20411;-63
2021/04/30 08:11:48;;;;;;;17.50;14.50;;;;;;;-146.18;100.00;67994.34;9989446;29;20510;-64
2021/04/30 08:16:44;;;;;;;15.38;13.63;;;;;;;-146.18;100.00;67994.34;9979004;29;20498;-64
2021/04/30 08:21:40;;;;;;;15.98;12.57;;;;;;;-146.18;100.00;67994.34;9980045;29;20368;-63
2021/04/30 08:26:37;;;;;;;15.20;12.43;;;;;;;-146.18;100.00;67994.34;9988371;29;20163;-65
2021/04/30 08:31:34;;;;;;;13.95;10.60;;;;;;;-146.18;100.00;67994.34;9982574;29;20052;-63
2021/04/30 08:36:30;;;;;;;15.20;12.25;;;;;;;-146.18;100.00;67994.34;9983899;29;20051;-64
2021/04/30 08:41:27;;;;;;;15.35;11.45;;;;;;;-146.18;100.00;67994.34;9984468;29;20052;-66
2021/04/30 08:46:23;;;;;;;17.95;12.50;;;;;;;-146.18;100.00;67994.34;9975501;29;20518;-63
2021/04/30 08:51:19;;;;;;;15.45;11.50;;;;;;;-146.18;100.00;67994.34;9986520;29;20052;-63
2021/04/30 08:56:17;;;;;;;13.63;11.80;;;;;;;-146.18;100.00;67994.34;9980550;29;20080;-63
2021/04/30 09:01:13;;;;;;;11.63;10.32;;;;;;;-146.18;100.00;67994.34;9980900;29;20076;-62
2021/04/30 09:06:18;;;;;;;11.52;8.73;;;;;;;-146.18;100.00;67994.34;9973678;29;20052;-64
2021/04/30 09:11:32;;;;;;;13.52;9.63;;;;;;;-146.18;100.00;67994.34;9977273;29;20157;-64
2021/04/30 09:16:28;;;;;;;13.35;10.07;;;;;;;-146.18;100.00;67994.34;9980948;29;20143;-64
2021/04/30 09:21:24;;;;;;;12.82;11.50;;;;;;;-146.18;100.00;67994.34;9982641;29;20054;-65
2021/04/30 09:26:37;;;;;;;13.40;11.07;;;;;;;-146.18;100.00;67994.34;9980325;29;20058;-64
2021/04/30 09:31:39;;;;;;;12.50;10.00;;;;;;;-146.18;100.00;67994.34;9985791;29;20047;-69
2021/04/30 09:36:54;;;;;;;14.30;10.40;;;;;;;-146.18;100.00;67994.34;9981869;29;20052;-63
2021/04/30 09:42:13;;;;;;;10.82;8.52;;;;;;;-146.18;100.00;67994.34;9981013;29;20306;-65
2021/04/30 09:47:12;;;;;;;9.95;8.73;;;;;;;-146.18;100.00;67994.34;9971271;29;20045;-64
2021/04/30 09:52:08;;;;;;;10.70;8.65;;;;;;;-146.18;100.00;67994.34;9980686;29;20062;-66
2021/04/30 09:57:19;;;;;;;12.20;9.15;;;;;;;-146.18;100.00;67994.34;9984243;29;20743;-66
2021/04/30 10:02:17;;;;;;;14.38;8.88;;;;;;;-146.18;100.00;67994.34;9979306;29;20198;-65
2021/04/30 10:07:25;;;;;;;10.15;8.05;;;;;;;-146.18;100.00;67994.34;9973999;29;20381;-64
2021/04/30 10:12:24;;;;;;;9.38;7.03;;;;;;;-146.18;100.00;67994.34;9965393;29;20511;-66
2021/04/30 10:17:20;;;;;;;9.70;7.40;;;;;;;-146.18;100.00;67994.34;9973482;29;20107;-65
2021/04/30 10:22:19;;;;;;;7.70;6.20;;;;;;;-146.18;100.00;67994.34;9973510;29;20060;-64
2021/04/30 10:27:35;;;;;;;8.73;7.23;;;;;;;-146.18;100.00;67994.34;9980798;29;20044;-64
2021/04/30 10:32:55;;;;;;;9.65;7.25;;;;;;;-146.18;100.00;67994.34;9966825;29;20440;-65
2021/04/30 10:37:55;;;;;;;7.97;6.03;;;;;;;-146.18;100.00;67994.34;9971573;29;20076;-66
2021/04/30 10:42:51;;;;;;;12.63;7.28;;;;;;;-146.18;100.00;67994.34;9974162;29;20040;-65
2021/04/30 10:48:05;;;;;;;8.82;7.38;;;;;;;-146.18;100.00;67994.34;9961257;29;20061;-64
2021/04/30 10:53:24;;;;;;;10.18;7.07;;;;;;;-146.18;100.00;67994.34;9965997;29;20142;-64
2021/04/30 10:58:37;;;;;;;10.15;6.85;;;;;;;-146.18;100.00;67994.34;9955234;29;20091;-64
2021/04/30 11:03:34;;;;;;;9.60;7.03;;;;;;;-146.18;100.00;67994.34;9970104;29;20071;-65
2021/04/30 11:08:53;;;;;;;10.50;8.07;;;;;;;-146.18;100.00;67994.34;9963596;29;20056;-65
2021/04/30 11:14:19;;;;;;;8.55;6.90;;;;;;;-146.18;100.00;67994.34;9974712;29;20403;-67
2021/04/30 11:19:16;;;;;;;10.93;7.15;;;;;;;-146.18;100.00;67994.34;9974105;29;20056;-65
2021/04/30 11:24:35;;;;;;;10.45;6.75;;;;;;;-146.18;100.00;67994.34;9980639;29;20123;-66
2021/04/30 11:29:32;;;;;;;8.93;7.65;;;;;;;-146.18;100.00;67994.34;9981418;29;20048;-65
2021/04/30 11:34:28;;;;;;;9.05;7.22;;;;;;;-146.18;100.00;67994.34;9988022;29;20071;-67
2021/04/30 11:39:25;;;;;;;8.15;7.15;;;;;;;-146.18;100.00;67994.34;9977078;29;20048;-65
2021/04/30 11:44:22;;;;;;;9.85;6.40;;;;;;;-146.18;100.00;67994.34;9989214;29;20131;-66
2021/04/30 11:49:19;;;;;;;7.63;6.05;;;;;;;-146.18;100.00;67994.34;9985920;29;20049;-67
2021/04/30 11:54:20;;;;;;;9.05;6.68;;;;;;;-146.18;100.00;67994.34;9984247;29;20040;-65
2021/04/30 11:59:18;;;;;;;8.93;7.43;;;;;;;-146.18;100.00;67994.34;9983391;29;20053;-66
2021/04/30 12:04:54;;;;;;;8.15;6.82;;;;;;;-146.18;100.00;67994.34;9988608;29;20095;-68
2021/04/30 12:10:05;;;;;;;7.82;6.40;;;;;;;-146.18;100.00;67994.34;9989543;29;20056;-69
2021/04/30 12:15:07;;;;;;;9.35;6.47;;;;;;;-146.18;100.00;67994.34;9978375;29;20060;-64
2021/04/30 12:20:18;;;;;;;8.00;6.10;;;;;;;-146.18;100.00;67994.34;9986095;29;20052;-65
2021/04/30 12:25:24;;;;;;;9.60;7.53;;;;;;;-146.18;100.00;67994.34;9979520;29;20126;-63
2021/04/30 12:30:30;;;;;;;9.27;6.82;;;;;;;-146.18;100.00;67994.34;9984495;29;20148;-65
2021/04/30 12:35:26;;;;;;;8.63;6.93;;;;;;;-146.18;100.00;67994.34;9985388;29;20084;-65
2021/04/30 12:40:36;;;;;;;8.05;6.82;;;;;;;-146.18;100.00;67994.34;9984522;29;20040;-64
2021/04/30 12:45:32;;;;;;;9.15;6.88;;;;;;;-146.18;100.00;67994.34;9985192;29;20061;-66
2021/04/30 12:50:28;;;;;;;9.18;6.25;;;;;;;-146.18;100.00;67994.34;9973107;29;20470;-67
2021/04/30 12:55:28;;;;;;;9.88;6.95;;;;;;;-146.18;100.00;67994.34;9982091;29;20085;-67
2021/04/30 13:00:25;;;;;;;9.77;6.78;;;;;;;-146.18;100.00;67994.34;9988812;29;20048;-65
2021/04/30 13:05:22;;;;;;;9.85;7.95;;;;;;;-146.18;100.00;67994.34;9983905;29;20096;-65
2021/04/30 13:10:27;;;;;;;8.43;6.72;;;;;;;-146.18;100.00;67994.34;9985701;29;20138;-65
2021/04/30 13:15:26;;;;;;;9.48;6.93;;;;;;;-146.18;100.00;67994.34;9981684;29;20127;-65
2021/04/30 13:20:31;;;;;;;9.82;7.28;;;;;;;-146.18;100.00;67994.34;9983309;29;20459;-64
2021/04/30 13:25:36;;;;;;;10.57;7.63;;;;;;;-146.18;100.00;67994.34;9984633;29;20157;-64
2021/04/30 13:30:34;;;;;;;10.05;7.50;;;;;;;-146.18;100.00;67994.34;9983452;29;20133;-66
2021/04/30 13:35:30;;;;;;;9.40;7.22;;;;;;;-146.18;100.00;67994.34;9978825;29;20161;-65
2021/04/30 13:40:26;;;;;;;8.30;6.80;;;;;;;-146.18;100.00;67994.34;9970873;29;20063;-65
2021/04/30 13:45:24;;;;;;;8.68;6.10;;;;;;;-146.18;100.00;67994.34;9980917;29;20052;-66
2021/04/30 13:50:31;;;;;;;10.35;7.28;;;;;;;-146.18;100.00;67994.34;9974607;29;20052;-64
2021/04/30 13:55:27;;;;;;;9.55;7.40;;;;;;;-146.18;100.00;67994.34;9979045;29;20167;-65
2021/04/30 14:00:27;;;;;;;9.05;7.22;;;;;;;-146.18;100.00;67994.34;9976557;29;20815;-64
2021/04/30 14:05:25;;;;;;;11.65;6.97;;;;;;;-146.18;100.00;67994.34;9981012;29;20053;-64
2021/04/30 14:10:21;;;;;;;10.60;6.53;;;;;;;-146.18;100.00;67994.34;9986539;29;20503;-65
2021/04/30 14:15:17;;;;;;;8.88;6.63;;;;;;;-146.18;100.00;67994.34;9972485;29;20063;-65
2021/04/30 14:20:15;;;;;;;8.82;6.57;;;;;;;-146.18;100.00;67994.34;9976897;29;20107;-65
2021/04/30 14:25:11;;;;;;;8.63;7.03;;;;;;;-146.18;100.00;67994.34;9971616;29;20048;-66
2021/04/30 14:30:10;;;;;;;8.80;7.10;;;;;;;-146.18;100.00;67994.34;9977419;29;20044;-69
2021/04/30 14:35:10;;;;;;;8.50;6.78;;;;;;;-146.18;100.00;67994.34;9978193;29;20579;-65
2021/04/30 14:40:06;;;;;;;9.55;7.32;;;;;;;-146.18;100.00;67994.34;9976552;29;20051;-66
2021/04/30 14:45:03;;;;;;;9.38;6.78;;;;;;;-146.18;100.00;67994.34;9986080;29;20558;-67
2021/04/30 14:49:59;;;;;;;9.35;7.57;;;;;;;-146.18;100.00;67994.34;9978556;29;20513;-66
2021/04/30 14:54:55;;;;;;;9.02;8.05;;;;;;;-146.18;100.00;67994.34;9976934;29;20048;-65
2021/04/30 14:59:53;;;;;;;10.15;7.32;;;;;;;-146.18;100.00;67994.34;9981326;29;20104;-65
2021/04/30 15:04:50;;;;;;;10.07;6.95;;;;;;;-146.18;100.00;67994.34;9968201;29;20048;-66
2021/04/30 15:09:47;;;;;;;10.05;7.80;;;;;;;-146.18;100.00;67994.34;9977864;29;20422;-65
2021/04/30 15:14:43;;;;;;;7.72;6.18;;;;;;;-146.18;100.00;67994.34;9968648;29;20440;-66
2021/04/30 15:19:39;;;;;;;9.18;6.30;;;;;;;-146.18;100.00;67994.34;9974129;29;20127;-66
2021/04/30 15:24:36;;;;;;;9.15;6.63;;;;;;;-146.18;100.00;67994.34;9976270;29;20076;-66
2021/04/30 15:29:32;;;;;;;12.15;7.32;;;;;;;-146.18;100.00;67994.34;9969741;29;20092;-66
2021/04/30 15:34:28;;;;;;;8.25;6.22;;;;;;;-146.18;100.00;67994.34;9977353;29;20059;-66
2021/04/30 15:39:25;;;;;;;8.05;6.68;;;;;;;-146.18;100.00;67994.34;9968759;29;20041;-65
2021/04/30 15:44:21;;;;;;;8.77;6.25;;;;;;;-146.18;100.00;67994.34;9972420;29;20055;-66
2021/04/30 15:49:17;;;;;;;9.68;6.78;;;;;;;-146.18;100.00;67994.34;9976009;29;20055;-65
2021/04/30 15:54:13;;;;;;;12.30;6.25;;;;;;;-146.18;100.00;67994.34;9982703;29;20052;-65
2021/04/30 15:59:09;;;;;;;8.75;6.53;;;;;;;-146.18;100.00;67994.34;9981747;29;20055;-65
2021/04/30 16:04:05;;;;;;;9.18;6.75;;;;;;;-146.18;100.00;67994.34;9979148;29;20048;-66
2021/04/30 16:09:03;;;;;;;7.80;5.72;;;;;;;-146.18;100.00;67994.34;9984099;29;20054;-65
2021/04/30 16:13:59;;;;;;;10.40;6.15;;;;;;;-146.18;100.00;67994.34;9987122;29;20045;-66
2021/04/30 16:18:55;;;;;;;7.93;5.60;;;;;;;-146.18;100.00;67994.34;9977379;29;20127;-64
2021/04/30 16:23:51;;;;;;;8.95;5.78;;;;;;;-146.18;100.00;67994.34;9973968;29;20047;-64
2021/04/30 16:28:47;;;;;;;6.30;4.75;;;;;;;-146.18;100.00;67994.34;9980006;29;20107;-63
2021/04/30 16:33:45;;;;;;;8.50;6.05;;;;;;;-146.18;100.00;67994.34;9985489;29;20107;-65
2021/04/30 16:38:41;;;;;;;9.18;5.82;;;;;;;-146.18;100.00;67994.34;9981883;29;20071;-64
2021/04/30 16:43:37;;;;;;;7.72;5.93;;;;;;;-146.18;100.00;67994.34;9980314;29;20060;-65
2021/04/30 16:48:48;;;;;;;8.48;5.82;;;;;;;-146.18;100.00;67994.34;9979109;29;20763;-63
2021/04/30 16:53:45;;;;;;;11.07;7.50;;;;;;;-146.18;100.00;67994.34;9976316;29;20075;-66
2021/04/30 16:58:44;;;;;;;9.75;6.82;;;;;;;-146.18;100.00;67994.34;9978320;29;20396;-64
2021/04/30 17:03:40;;;;;;;8.57;6.60;;;;;;;-146.18;100.00;67994.34;9974401;29;20059;-64
2021/04/30 17:08:37;;;;;;;8.75;6.72;;;;;;;-146.18;100.00;67994.34;9975365;29;20515;-65
2021/04/30 17:13:34;;;;;;;11.57;7.30;;;;;;;-146.18;100.00;67994.34;9976268;29;20508;-65
2021/04/30 17:18:30;;;;;;;10.68;6.75;;;;;;;-146.18;100.00;67994.34;9973846;29;20059;-66
2021/04/30 17:23:28;;;;;;;9.52;6.43;;;;;;;-146.18;100.00;67994.34;9982499;29;20158;-66
2021/04/30 17:28:24;;;;;;;10.30;6.95;;;;;;;-146.18;100.00;67994.34;9981250;29;20139;-67
2021/04/30 17:33:21;;;;;;;8.63;6.93;;;;;;;-146.18;100.00;67994.34;9981080;29;20044;-67
2021/04/30 17:38:25;;;;;;;9.38;7.07;;;;;;;-146.18;100.00;67994.34;9980784;29;20502;-66
2021/04/30 17:43:21;;;;;;;13.45;9.07;;;;;;;-146.18;100.00;67994.34;9985050;29;20048;-65
2021/04/30 17:48:17;;;;;;;12.55;7.45;;;;;;;-146.18;100.00;67994.34;9976362;29;20959;-66
2021/04/30 17:53:13;;;;;;;7.32;6.15;;;;;;;-146.18;100.00;67994.34;9976167;29;20156;-66
2021/04/30 17:58:09;;;;;;;9.85;6.68;;;;;;;-146.18;100.00;67994.34;9972335;29;20052;-65
2021/04/30 18:03:05;;;;;;;9.02;6.70;;;;;;;-146.18;100.00;67994.34;9964276;29;20056;-65
2021/04/30 18:08:02;;;;;;;9.98;6.70;;;;;;;-146.18;100.00;67994.34;9978398;29;20053;-66
2021/04/30 18:12:58;;;;;;;10.82;6.93;;;;;;;-146.18;100.00;67994.34;9984282;29;20052;-66
2021/04/30 18:17:54;;;;;;;10.13;6.93;;;;;;;-146.18;100.00;67994.34;9976072;29;20291;-66
2021/04/30 18:22:50;;;;;;;8.10;6.53;;;;;;;-146.18;100.00;67994.34;9983704;29;20103;-66
2021/04/30 18:27:47;;;;;;;10.23;6.07;;;;;;;-146.18;100.00;67994.34;9980027;29;20076;-65
2021/04/30 18:32:43;;;;;;;8.90;6.47;;;;;;;-146.18;100.00;67994.34;9979432;29;20044;-65
2021/04/30 18:37:40;;;;;;;8.73;6.80;;;;;;;-146.18;100.00;67994.34;9973640;29;20051;-68
2021/04/30 18:42:36;;;;;;;9.00;7.15;;;;;;;-146.18;100.00;67994.34;9977221;29;20040;-67
2021/04/30 18:47:32;;;;;;;11.05;7.80;;;;;;;-146.18;100.00;67994.34;9963826;29;20107;-66
2021/04/30 18:52:29;;;;;;;11.13;8.25;;;;;;;-146.18;100.00;67994.34;9975408;29;20053;-66
2021/04/30 18:57:24;;;;;;;11.27;8.15;;;;;;;-146.18;100.00;67994.34;9970490;29;20052;-67
2021/04/30 19:02:20;;;;;;;9.93;8.32;;;;;;;-146.18;100.00;67994.34;9977086;29;20418;-64
2021/04/30 19:07:17;;;;;;;13.77;9.98;;;;;;;-146.18;100.00;67994.34;9976618;29;20044;-64
2021/04/30 19:12:13;;;;;;;11.43;8.75;;;;;;;-146.18;100.00;67994.34;9978397;29;20052;-64
2021/04/30 19:17:29;;;;;;;12.18;8.48;;;;;;;-146.18;100.00;67994.34;9979234;29;20052;-65
2021/04/30 19:22:25;;;;;;;9.88;8.10;;;;;;;-146.18;100.00;67994.34;9967353;29;20139;-65
2021/04/30 19:27:21;;;;;;;10.45;8.48;;;;;;;-146.18;100.00;67994.34;9977325;29;20107;-65
2021/04/30 19:32:17;;;;;;;11.35;8.73;;;;;;;-146.18;100.00;67994.34;9975411;29;20521;-66
2021/04/30 19:37:13;;;;;;;12.95;8.80;;;;;;;-146.18;100.00;67994.34;9972920;29;20506;-66
2021/04/30 19:42:10;;;;;;;11.82;9.20;;;;;;;-146.18;100.00;67994.34;9976757;29;20060;-65
2021/04/30 19:47:07;;;;;;;11.98;8.68;;;;;;;-146.18;100.00;67994.34;9983525;29;20150;-65
2021/04/30 19:52:04;;;;;;;11.65;8.80;;;;;;;-146.18;100.00;67994.34;9969159;29;20147;-64
2021/04/30 19:57:00;;;;;;;12.50;8.90;;;;;;;-146.18;100.00;67994.34;9976925;29;20044;-65
2021/04/30 20:01:56;;;;;;;15.20;10.20;;;;;;;-146.18;100.00;67994.34;9984014;29;20562;-65
2021/04/30 20:06:53;;;;;;;13.73;9.32;;;;;;;-146.18;100.00;67994.34;9977427;29;20044;-65
2021/04/30 20:11:49;;;;;;;14.05;9.40;;;;;;;-146.18;100.00;67994.34;9982355;29;20055;-68
2021/04/30 20:16:45;;;;;;;15.93;10.10;;;;;;;-146.18;100.00;67994.34;9980188;29;20056;-66
2021/04/30 20:21:41;;;;;;;15.77;10.15;;;;;;;-146.18;100.00;67994.34;9963892;29;20109;-66
2021/04/30 20:26:37;;;;;;;11.40;9.85;;;;;;;-146.18;100.00;67994.34;9968527;29;20068;-66
2021/04/30 20:31:33;;;;;;;13.98;10.25;;;;;;;-146.18;100.00;67994.34;9977480;29;20051;-68
2021/04/30 20:36:30;;;;;;;13.77;11.13;;;;;;;-146.18;100.00;67994.34;9954601;29;20078;-67
2021/04/30 20:41:26;;;;;;;14.85;11.18;;;;;;;-146.18;100.00;67994.34;9971421;29;20057;-66
2021/04/30 20:46:23;;;;;;;14.43;10.57;;;;;;;-146.18;100.00;67994.34;9982349;29;20044;-66
2021/04/30 20:51:19;;;;;;;13.55;10.45;;;;;;;-146.18;100.00;67994.34;9985154;29;20100;-67
2021/04/30 20:56:15;;;;;;;15.80;11.52;;;;;;;-146.18;100.00;67994.34;9968267;29;20396;-65
2021/04/30 21:01:11;;;;;;;13.45;11.02;;;;;;;-146.18;100.00;67994.34;9978442;29;20044;-65
2021/04/30 21:06:08;;;;;;;16.35;11.40;;;;;;;-146.18;100.00;67994.34;9980482;29;20096;-65
2021/04/30 21:11:04;;;;;;;15.65;10.65;;;;;;;-146.18;100.00;67994.34;9984736;29;20301;-67
2021/04/30 21:16:00;;;;;;;13.23;11.43;;;;;;;-146.18;100.00;67994.34;9982602;29;20108;-68
2021/04/30 21:20:56;;;;;;;13.43;11.20;;;;;;;-146.18;100.00;67994.34;9977848;29;20593;-66
2021/04/30 21:25:52;;;;;;;16.30;11.60;;;;;;;-146.18;100.00;67994.34;9975365;29;20139;-65
2021/04/30 21:30:48;;;;;;;15.93;11.32;;;;;;;-146.18;100.00;67994.34;9977458;29;20522;-65
2021/04/30 21:35:44;;;;;;;14.05;11.07;;;;;;;-146.18;100.00;67994.34;9977997;29;20048;-67
2021/04/30 21:40:40;;;;;;;16.35;12.13;;;;;;;-146.18;100.00;67994.34;9981393;29;20048;-67
2021/04/30 21:45:40;;;;;;;16.40;11.85;;;;;;;-146.18;100.00;67994.34;9981165;29;20052;-67
2021/04/30 21:50:37;;;;;;;16.42;12.10;;;;;;;-146.18;100.00;67994.34;9972974;29;20052;-66
2021/04/30 21:55:33;;;;;;;16.58;11.55;;;;;;;-146.18;100.00;67994.34;9977056;29;20538;-64
2021/04/30 22:00:37;;;;;;;14.95;10.55;;;;;;;-146.18;100.00;67994.34;9978256;29;20112;-70
2021/04/30 22:05:35;;;;;;;13.20;10.57;;;;;;;-146.18;100.00;67994.34;9963385;29;20052;-67
2021/04/30 22:10:32;;;;;;;12.38;9.75;;;;;;;-146.18;100.00;67994.34;9978597;29;20152;-66
2021/04/30 22:15:37;;;;;;;16.08;10.68;;;;;;;-146.18;100.00;67994.34;9970084;29;20138;-65